Aérodrome :
LOGIN :

S'inscrire | Disclaimer

   EN    FR    IT 

 










Légende :    VFR   VFR Marginal   IFR   IFR Intensif   IFR Très Intensif
Visi : 
Plafond : 
>= 8 km
>= 3000ft
5 à 8 km
1000 à 3000 ft
1500m à 5 km
500 à 1000 ft
800 à 1500m
200 à 500 ft
< 800m
< 200 ft
Symboles :   Orages  Brouillard  Fortes neiges  Fortes précipitations  Vent > 20 kt
SIGMETs :   Divers  Orages  Givrage  Turbulence  Onde Orograph.  Cendres Volcan.






- Altitude de l'aérodrome : 359 ft
- Code IATA : BVA


LFOB - Beauvais

DERNIER METAR :
  • 221800Z AUTO 05009KT 5000 BR OVC006 01/M00 Q1034 BECMG 2000 BR OVC002

METARs EXPIRÉS :
  • 221730Z AUTO 04009KT 5000 BR OVC007 01/00 Q1034 BECMG 2000 BR OVC002
  • 221700Z AUTO 03007KT 6000 OVC007 01/00 Q1034 BECMG 2000 BR OVC002
  • 221630Z AUTO 03007KT 5000 BR BKN007 OVC230 01/M00 Q1034 BECMG 2000 BR OVC002
  • 221600Z AUTO 02006KT 350V050 6000 SCT007 BKN240 02/00 Q1034 BECMG 2000 BR OVC002
  • 221530Z AUTO 03008KT CAVOK 03/01 Q1034 BECMG 2000 BR OVC002

TAF TAF LFOB
Valide du 22 à 18h jusqu'au 23 à 18h UTC


221700Z 2218/2318 03007KT 6000 OVC007
BECMG 2218/2220 2000 BR OVC002
BECMG 2220/2222 0300 FG VV///
PROB40 2220/2306 FZFG
BECMG 2310/2313 6000 NSW OVC004
ATIS : +33 3 44 11 49 28



MET'MAP, la Météo Aéronautique d'un coup d'oeil ! - Copyright ORBIFLY Décembre 2007 - Disclaimer

ORBIFLY MET'MAP TEAM :

Programmation & Développement : Alexandra Zaïnal
Sur une idée originale de : Baudouin d'Aumeries
Assistance à la programmation : Marc-Olivier Méhu
Soutien technique & logistique : Manuel Goepfert

Contact : metmap@orbifly.com




SOURCES & CREDITS :

   NOAA